Time;durP1;ratioP1;P1;durP2;ratioP2;P2;SDS_P1;SDS_P2;PMS_P1;PMS_P2;Temp;Humidity;BMP_temperature;BMP_pressure;BME280_temperature;BME280_humidity;BME280_pressure;Samples;Min_cycle;Max_cycle;Signal;HPM_P1;HPM_P2
2024/03/30 00:01:40;;;;;;;0.00;0.00;;;;;;;4.83;100.00;97949.63;4832427;29;20034;-80
2024/03/30 00:04:05;;;;;;;0.00;0.00;;;;;;;4.76;100.00;97947.28;4816921;29;20117;-79
2024/03/30 00:06:31;;;;;;;0.00;0.00;;;;;;;4.69;100.00;97931.38;4788574;29;20027;-78
2024/03/30 00:09:07;;;;;;;0.00;0.00;;;;;;;4.65;100.00;97922.19;4818874;29;20027;-79
2024/03/30 00:11:32;;;;;;;0.10;0.10;;;;;;;4.81;100.00;97946.41;4841183;29;20038;-79
2024/03/30 00:13:58;;;;;;;0.00;0.00;;;;;;;4.90;100.00;97955.50;4801911;29;20056;-80
2024/03/30 00:16:44;;;;;;;;;;;;;;;;;;;;;
2024/03/30 00:19:15;;;;;;;0.10;0.10;;;;;;;4.78;100.00;97950.50;4818854;29;20040;-78
2024/03/30 00:21:40;;;;;;;0.00;0.00;;;;;;;4.70;100.00;97956.53;4792340;29;20587;-79
2024/03/30 00:24:16;;;;;;;;;;;;;;;;;;;;;
2024/03/30 00:26:41;;;;;;;0.00;0.00;;;;;;;4.68;100.00;97964.94;4826505;29;20046;-78
2024/03/30 00:29:09;;;;;;;0.10;0.10;;;;;;;4.60;100.00;97965.59;4837485;29;20494;-78
2024/03/30 00:31:34;;;;;;;0.10;0.10;;;;;;;4.45;100.00;97954.91;4826955;29;20066;-79
2024/03/30 00:34:10;;;;;;;;;;;;;;;;;;;;;
2024/03/30 00:36:35;;;;;;;0.00;0.00;;;;;;;4.36;100.00;97958.22;4835035;29;20044;-80
2024/03/30 00:39:04;;;;;;;0.00;0.00;;;;;;;4.48;100.00;97981.41;4790602;29;20030;-78
2024/03/30 00:41:30;;;;;;;0.10;0.10;;;;;;;4.49;100.00;97988.44;4819577;29;20037;-82
2024/03/30 00:44:15;;;;;;;0.10;0.10;;;;;;;4.46;100.00;97978.19;4819784;29;20124;-80
2024/03/30 00:46:49;;;;;;;0.00;0.00;;;;;;;4.35;100.00;97967.47;4817237;29;21354;-81
2024/03/30 00:49:14;;;;;;;0.08;0.08;;;;;;;4.55;100.00;98003.53;4820001;29;20026;-79
2024/03/30 00:51:42;;;;;;;0.00;0.00;;;;;;;4.35;100.00;97959.34;4834684;29;20031;-79
2024/03/30 00:54:07;;;;;;;0.10;0.10;;;;;;;4.27;100.00;97938.31;4793251;29;20088;-79
2024/03/30 00:56:53;;;;;;;0.10;0.10;;;;;;;4.47;100.00;97955.44;4834275;29;20438;-82
2024/03/30 00:59:30;;;;;;;0.00;0.00;;;;;;;4.71;100.00;97988.72;4814416;29;20689;-79
2024/03/30 01:01:56;;;;;;;0.00;0.00;;;;;;;4.66;100.00;97972.56;4834456;29;20096;-79
2024/03/30 01:04:21;;;;;;;0.00;0.00;;;;;;;4.58;100.00;97964.25;4818573;29;20038;-76
2024/03/30 01:06:47;;;;;;;0.00;0.00;;;;;;;4.64;100.00;97980.13;4821218;29;20103;-76
2024/03/30 01:09:20;;;;;;;0.00;0.00;;;;;;;4.46;100.00;97959.22;4816144;29;20034;-78
2024/03/30 01:12:02;;;;;;;0.00;0.00;;;;;;;4.35;100.00;97950.41;4815740;29;20446;-79
2024/03/30 01:14:30;;;;;;;0.10;0.10;;;;;;;4.50;100.00;97968.41;4814557;29;20042;-78
2024/03/30 01:17:14;;;;;;;0.00;0.00;;;;;;;4.38;100.00;97968.78;4818434;29;20030;-80
2024/03/30 01:19:43;;;;;;;0.00;0.00;;;;;;;4.48;100.00;97981.41;4810791;29;20620;-79
2024/03/30 01:22:11;;;;;;;0.00;0.00;;;;;;;4.37;100.00;97981.50;4816389;29;20065;-77
2024/03/30 01:24:39;;;;;;;0.10;0.10;;;;;;;4.42;100.00;97977.13;4827758;29;20458;-79
2024/03/30 01:27:47;;;;;;;0.00;0.00;;;;;;;4.55;100.00;97992.69;4813802;29;20038;-80
2024/03/30 01:30:16;;;;;;;0.00;0.00;;;;;;;4.48;100.00;97984.09;4783668;29;20070;-80
2024/03/30 01:32:56;;;;;;;0.10;0.10;;;;;;;4.52;100.00;97977.81;4796390;29;20129;-80
2024/03/30 01:35:44;;;;;;;0.10;0.10;;;;;;;4.74;100.00;98006.31;4774516;29;20042;-79
2024/03/30 01:38:43;;;;;;;0.00;0.00;;;;;;;4.65;100.00;97992.59;4792529;29;20131;-81
2024/03/30 01:41:09;;;;;;;0.00;0.00;;;;;;;4.53;100.00;97975.94;4801177;29;20042;-79
2024/03/30 01:43:35;;;;;;;0.00;0.00;;;;;;;4.51;100.00;97975.41;4803782;29;20370;-79
2024/03/30 01:46:00;;;;;;;0.00;0.00;;;;;;;4.42;100.00;97972.50;4809276;29;20043;-78
2024/03/30 01:48:36;;;;;;;0.00;0.00;;;;;;;4.49;100.00;97972.19;4833263;29;20401;-80
2024/03/30 01:51:02;;;;;;;0.00;0.00;;;;;;;4.60;100.00;97968.28;4802815;29;20034;-80
2024/03/30 01:53:33;;;;;;;0.00;0.00;;;;;;;4.63;100.00;97975.00;4786639;29;20034;-79
2024/03/30 01:55:58;;;;;;;0.00;0.00;;;;;;;4.64;100.00;97977.44;4831543;29;20080;-80
2024/03/30 01:58:44;;;;;;;0.00;0.00;;;;;;;4.42;100.00;97955.47;4833360;29;20509;-80
2024/03/30 02:01:19;;;;;;;0.00;0.00;;;;;;;4.64;100.00;97977.44;4816460;29;20042;-80
2024/03/30 02:04:09;;;;;;;0.10;0.10;;;;;;;4.58;100.00;97966.97;4818328;29;20134;-81
2024/03/30 02:06:56;;;;;;;;;;;;;;;;;;;;;
2024/03/30 02:09:38;;;;;;;0.10;0.10;;;;;;;4.76;100.00;98011.44;4818956;29;20034;-79
2024/03/30 02:12:04;;;;;;;0.00;0.00;;;;;;;4.68;100.00;97970.34;4821677;29;20441;-82
2024/03/30 02:14:58;;;;;;;0.00;0.00;;;;;;;4.59;100.00;97963.97;4818667;29;20050;-81
2024/03/30 02:18:10;;;;;;;0.10;0.10;;;;;;;4.65;100.00;97992.59;4765606;29;20653;-81
2024/03/30 02:20:35;;;;;;;0.10;0.10;;;;;;;4.42;100.00;97960.91;4818176;29;20044;-78
2024/03/30 02:23:14;;;;;;;;;;;;;;;;;;;;;
2024/03/30 02:25:42;;;;;;;0.00;0.00;;;;;;;4.55;100.00;97984.56;4817120;29;20015;-78
2024/03/30 02:28:07;;;;;;;0.10;0.10;;;;;;;4.48;100.00;97967.88;4833903;29;20043;-79
2024/03/30 02:30:44;;;;;;;0.00;0.00;;;;;;;4.39;100.00;97956.06;4816432;29;20447;-79
2024/03/30 02:33:18;;;;;;;0.00;0.00;;;;;;;4.57;100.00;97984.28;4832258;29;20734;-79
2024/03/30 02:35:48;;;;;;;0.00;0.00;;;;;;;4.57;100.00;97987.81;4829693;29;20050;-78
2024/03/30 02:38:31;;;;;;;0.00;0.00;;;;;;;4.44;100.00;97969.53;4819696;29;20126;-79
2024/03/30 02:41:14;;;;;;;0.00;0.00;;;;;;;4.49;100.00;97985.72;4829470;29;20045;-77
2024/03/30 02:43:46;;;;;;;0.00;0.00;;;;;;;4.46;100.00;97989.00;4826741;29;20495;-79
2024/03/30 02:46:12;;;;;;;0.00;0.00;;;;;;;4.24;100.00;97971.34;4830363;29;20064;-78
2024/03/30 02:48:37;;;;;;;0.00;0.00;;;;;;;4.35;100.00;97997.22;4816902;29;20058;-78
2024/03/30 02:51:03;;;;;;;0.00;0.00;;;;;;;4.15;100.00;97973.84;4832241;29;20046;-78
2024/03/30 02:53:31;;;;;;;0.10;0.10;;;;;;;3.96;100.00;97949.41;4830811;29;20038;-78
2024/03/30 02:55:56;;;;;;;0.00;0.00;;;;;;;3.99;100.00;97956.94;4815860;29;20117;-77
2024/03/30 02:58:32;;;;;;;;;;;;;;;;;;;;;
2024/03/30 03:01:00;;;;;;;0.00;0.00;;;;;;;3.85;100.00;97966.78;4827737;29;20027;-78
2024/03/30 03:03:26;;;;;;;0.00;0.00;;;;;;;3.82;100.00;97959.25;4815083;29;20494;-78
2024/03/30 03:05:55;;;;;;;0.00;0.00;;;;;;;4.00;100.00;97992.91;4815382;29;20036;-78
2024/03/30 03:08:38;;;;;;;0.10;0.10;;;;;;;3.93;100.00;97979.72;4812864;29;20121;-77
2024/03/30 03:11:04;;;;;;;0.10;0.10;;;;;;;3.80;100.00;97974.94;4795123;29;20482;-78
2024/03/30 03:13:29;;;;;;;0.00;0.00;;;;;;;3.82;100.00;97986.28;4788011;29;20030;-79
2024/03/30 03:16:05;;;;;;;0.10;0.10;;;;;;;3.66;100.00;97978.28;4787715;29;20043;-78
2024/03/30 03:18:30;;;;;;;0.00;0.00;;;;;;;3.78;100.00;98001.44;4831157;29;20050;-77
2024/03/30 03:20:56;;;;;;;0.00;0.00;;;;;;;3.68;100.00;97991.53;4831218;29;20058;-78
2024/03/30 03:23:34;;;;;;;0.00;0.00;;;;;;;3.76;100.00;98012.53;4816358;29;20031;-79
2024/03/30 03:26:00;;;;;;;0.00;0.00;;;;;;;3.75;100.00;97997.44;4813992;29;20034;-78
2024/03/30 03:28:34;;;;;;;0.00;0.00;;;;;;;3.72;100.00;97987.16;4816647;29;20418;-78
2024/03/30 03:31:18;;;;;;;;;;;;;;;;;;;;;
2024/03/30 03:33:43;;;;;;;0.00;0.00;;;;;;;3.71;100.00;97976.63;4815389;29;20038;-80
2024/03/30 03:36:27;;;;;;;0.00;0.00;;;;;;;3.81;100.00;97984.66;4817385;29;20117;-79
2024/03/30 03:38:55;;;;;;;0.00;0.00;;;;;;;3.79;100.00;97986.84;4830122;29;20113;-77
2024/03/30 03:41:26;;;;;;;0.00;0.00;;;;;;;3.77;100.00;97989.03;4830549;29;20084;-79
2024/03/30 03:43:52;;;;;;;0.10;0.10;;;;;;;3.81;100.00;97985.47;4811118;29;20039;-78
2024/03/30 03:46:17;;;;;;;0.00;0.00;;;;;;;4.10;100.00;97998.22;4818570;29;20099;-80
2024/03/30 03:48:43;;;;;;;0.00;0.00;;;;;;;3.87;100.00;97961.91;4830642;29;20228;-78
2024/03/30 03:51:09;;;;;;;0.00;0.00;;;;;;;4.05;100.00;97984.75;4829771;29;20091;-79
2024/03/30 03:53:42;;;;;;;0.00;0.00;;;;;;;4.12;100.00;98000.66;4813258;29;21665;-79
2024/03/30 03:56:15;;;;;;;0.00;0.00;;;;;;;4.06;100.00;97990.97;4804497;29;20478;-80
2024/03/30 03:58:40;;;;;;;0.00;0.00;;;;;;;4.21;100.00;98014.41;4818030;29;20139;-80
2024/03/30 04:01:11;;;;;;;0.00;0.00;;;;;;;4.01;100.00;97986.41;4833223;29;20125;-79
2024/03/30 04:03:36;;;;;;;0.00;0.00;;;;;;;3.98;100.00;97979.66;4818626;29;20041;-78
2024/03/30 04:06:12;;;;;;;0.00;0.00;;;;;;;4.16;100.00;98012.50;4834788;29;20382;-79
2024/03/30 04:08:38;;;;;;;0.10;0.10;;;;;;;4.14;100.00;98004.69;4818745;29;20128;-79
2024/03/30 04:11:35;;;;;;;0.00;0.00;;;;;;;4.01;100.00;97995.31;4818450;29;20022;-80
2024/03/30 04:13:59;;;;;;;0.00;0.00;;;;;;;3.78;100.00;97963.59;4818006;29;20058;-79
2024/03/30 04:16:30;;;;;;;0.00;0.00;;;;;;;3.69;100.00;97970.69;4819531;29;22286;-78
2024/03/30 04:18:59;;;;;;;0.00;0.00;;;;;;;3.78;100.00;97991.44;4799616;29;20046;-80
2024/03/30 04:22:03;;;;;;;0.00;0.00;;;;;;;3.63;100.00;97973.41;4803421;29;20050;-81
2024/03/30 04:24:39;;;;;;;0.10;0.10;;;;;;;3.47;100.00;97966.50;4835700;29;20034;-80
2024/03/30 04:27:04;;;;;;;0.00;0.00;;;;;;;3.61;100.00;97969.41;4819110;29;20081;-79
2024/03/30 04:30:23;;;;;;;;;;;;;;;;;;;;;
2024/03/30 04:33:10;;;;;;;;;;;;;;;;;;;;;
2024/03/30 04:35:36;;;;;;;0.10;0.10;;;;;;;3.50;100.00;97974.03;4818652;29;20486;-79
2024/03/30 04:38:09;;;;;;;0.00;0.00;;;;;;;3.73;100.00;98007.69;4821459;29;20048;-80
2024/03/30 04:40:52;;;;;;;;;;;;;;;;;;;;;
2024/03/30 04:43:20;;;;;;;0.00;0.00;;;;;;;3.49;100.00;97972.44;4820841;29;20030;-77
2024/03/30 04:45:58;;;;;;;0.00;0.00;;;;;;;3.40;100.00;97964.13;4834485;29;20034;-78
2024/03/30 04:48:27;;;;;;;0.10;0.10;;;;;;;3.50;100.00;97982.16;4821953;29;20417;-77
2024/03/30 04:51:10;;;;;;;0.00;0.00;;;;;;;3.53;100.00;97981.59;4835689;29;20026;-76
2024/03/30 04:53:47;;;;;;;0.00;0.00;;;;;;;3.40;100.00;97968.72;4816455;29;20074;-77
2024/03/30 04:56:13;;;;;;;0.10;0.10;;;;;;;3.45;100.00;97985.69;4807424;29;20042;-77
2024/03/30 04:58:40;;;;;;;0.00;0.00;;;;;;;3.31;100.00;97976.59;4802527;29;20037;-77
2024/03/30 05:01:09;;;;;;;0.00;0.00;;;;;;;3.35;100.00;98010.06;4822802;29;20439;-77
2024/03/30 05:03:36;;;;;;;0.00;0.00;;;;;;;3.37;100.00;98018.69;4803813;29;20470;-77
2024/03/30 05:06:06;;;;;;;0.10;0.10;;;;;;;3.30;100.00;98007.38;4832179;29;20431;-79
2024/03/30 05:08:34;;;;;;;0.00;0.00;;;;;;;3.21;100.00;98003.66;4832403;29;20038;-78
2024/03/30 05:11:00;;;;;;;0.10;0.10;;;;;;;3.14;100.00;97998.56;4815870;29;20121;-78
2024/03/30 05:13:27;;;;;;;0.10;0.10;;;;;;;3.13;100.00;98013.94;4819002;29;20125;-78
2024/03/30 05:15:53;;;;;;;0.10;0.10;;;;;;;2.90;100.00;97982.16;4816457;29;20027;-79
2024/03/30 05:18:29;;;;;;;0.10;0.10;;;;;;;2.95;100.00;97999.16;4834149;29;20114;-78
2024/03/30 05:20:59;;;;;;;0.00;0.00;;;;;;;2.74;100.00;97976.00;4828135;29;20394;-78
2024/03/30 05:23:33;;;;;;;0.00;0.00;;;;;;;2.84;100.00;97996.78;4833244;29;20040;-79
2024/03/30 05:26:00;;;;;;;0.00;0.00;;;;;;;3.01;100.00;98026.13;4818084;29;20079;-78
2024/03/30 05:28:35;;;;;;;0.00;0.00;;;;;;;2.82;100.00;98002.44;4833661;29;20065;-78
2024/03/30 05:31:07;;;;;;;0.10;0.10;;;;;;;2.96;100.00;98019.69;4821236;29;20037;-78
2024/03/30 05:33:40;;;;;;;0.00;0.00;;;;;;;2.84;100.00;98011.06;4820807;29;20050;-79
2024/03/30 05:36:16;;;;;;;;;;;;;;;;;;;;;
2024/03/30 05:39:05;;;;;;;0.10;0.10;;;;;;;2.68;100.00;97985.22;4813212;29;20027;-78
2024/03/30 05:41:33;;;;;;;0.00;0.00;;;;;;;2.54;100.00;97975.00;4835325;29;20394;-78
2024/03/30 05:44:08;;;;;;;;;;;;;;;;;;;;;
2024/03/30 05:46:36;;;;;;;0.00;0.00;;;;;;;2.86;100.00;98014.31;4818420;29;20048;-79
2024/03/30 05:49:02;;;;;;;0.00;0.00;;;;;;;2.82;100.00;98015.94;4820117;29;20489;-78
2024/03/30 05:51:27;;;;;;;0.00;0.00;;;;;;;2.70;100.00;97999.22;4829302;29;20042;-79
2024/03/30 05:53:55;;;;;;;0.00;0.00;;;;;;;2.86;100.00;98019.72;4820211;29;20389;-78
2024/03/30 05:56:21;;;;;;;0.00;0.00;;;;;;;2.86;100.00;98014.31;4802312;29;20050;-78
2024/03/30 05:58:50;;;;;;;0.10;0.10;;;;;;;2.73;100.00;98006.78;4799365;29;20019;-78
2024/03/30 06:01:15;;;;;;;0.00;0.00;;;;;;;2.73;100.00;98014.88;4797503;29;20030;-79
2024/03/30 06:03:50;;;;;;;0.10;0.10;;;;;;;2.88;100.00;98033.75;4802011;29;20052;-79
2024/03/30 06:06:15;;;;;;;0.00;0.00;;;;;;;2.69;100.00;97997.63;4812463;29;20030;-79
2024/03/30 06:08:41;;;;;;;0.10;0.10;;;;;;;2.83;100.00;98016.75;4794067;29;20037;-79
2024/03/30 06:11:06;;;;;;;0.00;0.00;;;;;;;2.90;100.00;98020.75;4811542;29;20034;-79
2024/03/30 06:13:32;;;;;;;0.00;0.00;;;;;;;2.83;100.00;98009.44;4833195;29;20041;-78
2024/03/30 06:16:23;;;;;;;;;;;;;;;;;;;;;
2024/03/30 06:18:48;;;;;;;0.10;0.10;;;;;;;3.00;100.00;98035.34;4830380;29;20034;-79
2024/03/30 06:21:39;;;;;;;0.00;0.00;;;;;;;3.01;100.00;98034.22;4830676;29;20061;-80
2024/03/30 06:24:15;;;;;;;;;;;;;;;;;;;;;
2024/03/30 06:26:40;;;;;;;0.00;0.00;;;;;;;3.00;100.00;98029.94;4829405;29;20049;-79
2024/03/30 06:29:09;;;;;;;0.00;0.00;;;;;;;3.09;100.00;98020.16;4802191;29;20106;-78
2024/03/30 06:31:35;;;;;;;0.00;0.00;;;;;;;3.12;100.00;98028.53;4827072;29;20042;-78
2024/03/30 06:34:03;;;;;;;0.00;0.00;;;;;;;3.20;100.00;98040.66;4814903;29;20051;-78
2024/03/30 06:36:29;;;;;;;0.00;0.00;;;;;;;3.27;100.00;98035.78;4827547;29;20187;-78
2024/03/30 06:38:54;;;;;;;0.10;0.10;;;;;;;3.44;100.00;98057.03;4802990;29;20065;-78
2024/03/30 06:44:12;;;;;;;0.10;0.10;;;;;;;3.62;100.00;98041.28;4817001;29;20467;-79
2024/03/30 06:46:37;;;;;;;0.00;0.00;;;;;;;3.68;100.00;98045.59;4834624;29;20509;-79
2024/03/30 06:49:03;;;;;;;0.00;0.00;;;;;;;3.94;100.00;98078.69;4786838;29;20061;-78
2024/03/30 06:51:32;;;;;;;0.00;0.00;;;;;;;3.94;100.00;98054.34;4807338;29;20031;-78
2024/03/30 06:53:58;;;;;;;0.10;0.10;;;;;;;4.02;100.00;98048.31;4803050;29;20045;-78
2024/03/30 06:56:28;;;;;;;0.00;0.00;;;;;;;4.09;100.00;98033.66;4814767;29;20480;-79
2024/03/30 06:58:54;;;;;;;0.00;0.00;;;;;;;4.31;100.00;98053.00;4812308;29;20471;-79
2024/03/30 07:01:19;;;;;;;0.00;0.00;;;;;;;4.47;100.00;98044.75;4829090;29;20125;-80
2024/03/30 07:03:45;;;;;;;0.00;0.00;;;;;;;4.62;100.00;98047.31;4800498;29;20026;-79
2024/03/30 07:06:10;;;;;;;0.00;0.00;;;;;;;4.82;100.00;98059.03;4828687;29;20038;-78
2024/03/30 07:08:37;;;;;;;0.00;0.00;;;;;;;5.06;100.00;98067.97;4813770;29;20121;-78
2024/03/30 07:11:02;;;;;;;0.10;0.10;;;;;;;5.19;100.00;98066.50;4802864;29;20041;-79
2024/03/30 07:13:28;;;;;;;0.00;0.00;;;;;;;5.42;100.00;98075.72;4817477;29;20029;-79
2024/03/30 07:15:54;;;;;;;0.00;0.00;;;;;;;5.58;100.00;98078.25;4803880;29;20505;-78
2024/03/30 07:18:20;;;;;;;0.00;0.00;;;;;;;5.60;100.00;98065.19;4783734;29;20466;-79
2024/03/30 07:21:20;;;;;;;0.00;0.00;;;;;;;5.86;100.00;98095.50;4815961;29;20087;-78
2024/03/30 07:23:46;;;;;;;0.00;0.00;;;;;;;5.85;100.00;98077.59;4809316;29;20374;-77
2024/03/30 07:26:17;;;;;;;0.00;0.00;;;;;;;5.84;100.00;98069.75;4800848;29;21057;-78
2024/03/30 07:28:46;;;;;;;0.00;0.00;;;;;;;5.97;100.00;98074.47;4814433;29;20046;-80
2024/03/30 07:31:26;;;;;;;;;;;;;;;;;;;;;
2024/03/30 07:33:52;;;;;;;0.00;0.00;;;;;;;6.13;100.00;98066.13;4819211;29;20027;-78
2024/03/30 07:36:17;;;;;;;0.00;0.00;;;;;;;6.27;100.00;98077.88;4814307;29;20553;-78
2024/03/30 07:38:45;;;;;;;0.00;0.00;;;;;;;6.41;100.00;98083.34;4820704;29;20078;-79
2024/03/30 07:41:10;;;;;;;0.00;0.00;;;;;;;6.57;100.00;98092.03;4837930;29;20026;-77
2024/03/30 07:43:36;;;;;;;0.00;0.00;;;;;;;6.59;100.00;98084.41;4797663;29;20084;-78
2024/03/30 07:46:05;;;;;;;0.00;0.00;;;;;;;6.66;100.00;98095.72;4817637;29;20031;-81
2024/03/30 07:48:33;;;;;;;0.00;0.00;;;;;;;6.88;100.00;98110.53;4816651;29;20473;-78
2024/03/30 07:50:58;;;;;;;0.00;0.00;;;;;;;7.03;100.00;98113.00;4816615;29;20050;-78
2024/03/30 07:53:24;;;;;;;0.00;0.00;;;;;;;7.00;100.00;98100.00;4814354;29;20089;-78
2024/03/30 07:55:49;;;;;;;0.00;0.00;;;;;;;7.15;100.00;98102.47;4817474;29;20446;-81
2024/03/30 07:58:14;;;;;;;0.00;0.00;;;;;;;7.41;100.00;98098.44;4802436;29;20031;-81
2024/03/30 08:00:40;;;;;;;0.10;0.10;;;;;;;7.76;100.00;98099.63;4815045;29;20035;-79
2024/03/30 08:03:09;;;;;;;0.00;0.00;;;;;;;8.07;100.00;98141.72;4831342;29;20098;-78
2024/03/30 08:05:56;;;;;;;0.05;0.05;;;;;;;7.77;100.00;98116.75;4798503;29;20042;-79
2024/03/30 08:08:22;;;;;;;0.00;0.00;;;;;;;7.36;100.00;98085.75;4815382;29;20042;-79
2024/03/30 08:10:48;;;;;;;0.00;0.00;;;;;;;7.95;100.00;98140.31;4828369;29;20039;-78
2024/03/30 08:13:21;;;;;;;0.00;0.00;;;;;;;8.69;100.00;98127.56;4831761;29;20050;-78
2024/03/30 08:15:48;;;;;;;0.00;0.00;;;;;;;9.98;100.00;98118.66;4826307;29;20038;-79
2024/03/30 08:18:21;;;;;;;0.00;0.00;;;;;;;11.51;100.00;98155.88;4816675;29;20038;-77
2024/03/30 08:20:46;;;;;;;0.00;0.00;;;;;;;12.45;100.00;98151.38;4820979;29;20079;-77
2024/03/30 08:23:15;;;;;;;0.00;0.00;;;;;;;13.87;100.00;98150.41;4782280;29;20079;-76
2024/03/30 08:25:41;;;;;;;0.10;0.10;;;;;;;15.37;100.00;98142.22;4815026;29;20125;-78
2024/03/30 08:28:07;;;;;;;0.00;0.00;;;;;;;16.91;100.00;98147.75;4781367;29;20121;-77
2024/03/30 08:30:35;;;;;;;0.00;0.00;;;;;;;18.28;100.00;98146.53;4815419;29;20042;-78
2024/03/30 08:33:03;;;;;;;0.03;0.03;;;;;;;19.61;100.00;98152.88;4828874;29;20058;-78
2024/03/30 08:35:28;;;;;;;0.00;0.00;;;;;;;20.45;97.95;98155.94;4819774;29;20045;-77
2024/03/30 08:38:11;;;;;;;0.05;0.05;;;;;;;21.48;89.73;98150.38;4797455;29;20038;-75
2024/03/30 08:40:37;;;;;;;0.00;0.00;;;;;;;21.94;84.80;98144.09;4784167;29;20032;-79
2024/03/30 08:43:02;;;;;;;0.00;0.00;;;;;;;22.58;81.41;98140.44;4832171;29;20034;-79
2024/03/30 08:45:30;;;;;;;0.00;0.00;;;;;;;23.23;78.10;98167.25;4805995;29;20037;-79
2024/03/30 08:47:58;;;;;;;0.00;0.00;;;;;;;23.35;74.31;98164.81;4833394;29;20052;-78
2024/03/30 08:50:23;;;;;;;0.00;0.00;;;;;;;23.26;74.95;98160.88;4803647;29;20443;-77
2024/03/30 08:52:49;;;;;;;0.00;0.00;;;;;;;24.57;71.12;98174.22;4802500;29;20042;-77
2024/03/30 08:55:14;;;;;;;0.05;0.05;;;;;;;25.94;69.73;98177.25;4786937;29;20117;-77
2024/03/30 08:57:42;;;;;;;0.00;0.00;;;;;;;28.35;60.27;98165.88;4818996;29;20042;-77
2024/03/30 09:00:08;;;;;;;0.00;0.00;;;;;;;28.90;56.14;98172.41;4814496;29;20376;-77
2024/03/30 09:02:36;;;;;;;0.00;0.00;;;;;;;26.27;58.60;98164.31;4792343;29;20482;-77
2024/03/30 09:05:04;;;;;;;0.00;0.00;;;;;;;23.61;67.93;98159.88;4812989;29;20042;-77
2024/03/30 09:07:29;;;;;;;0.00;0.00;;;;;;;22.90;73.88;98155.44;4826783;29;20492;-80
2024/03/30 09:09:57;;;;;;;0.00;0.00;;;;;;;22.77;73.46;98164.25;4818028;29;20035;-78
2024/03/30 09:12:23;;;;;;;0.00;0.00;;;;;;;21.74;76.21;98161.19;4834101;29;20026;-79
2024/03/30 09:14:48;;;;;;;0.00;0.00;;;;;;;21.88;75.37;98162.38;4813844;29;20182;-81
2024/03/30 09:17:14;;;;;;;0.00;0.00;;;;;;;23.73;74.50;98153.00;4808145;29;20042;-77
2024/03/30 09:19:39;;;;;;;0.00;0.00;;;;;;;25.10;63.93;98160.03;4810408;29;20034;-78
2024/03/30 09:22:05;;;;;;;0.00;0.00;;;;;;;25.51;66.36;98164.72;4808389;29;20035;-81
2024/03/30 09:24:30;;;;;;;0.00;0.00;;;;;;;28.01;60.75;98162.31;4818301;29;20126;-78
2024/03/30 09:26:56;;;;;;;0.00;0.00;;;;;;;28.82;55.36;98175.88;4802700;29;20053;-77
2024/03/30 09:29:22;;;;;;;0.00;0.00;;;;;;;27.86;46.03;98164.66;4819294;29;20031;-79
2024/03/30 09:31:51;;;;;;;0.00;0.00;;;;;;;27.95;46.39;98155.63;4811240;29;20076;-79
2024/03/30 09:34:16;;;;;;;0.00;0.00;;;;;;;26.45;54.06;98161.16;4795994;29;21274;-76
2024/03/30 09:36:41;;;;;;;0.00;0.00;;;;;;;26.74;57.50;98165.47;4801743;29;20033;-78
2024/03/30 09:39:07;;;;;;;0.00;0.00;;;;;;;27.39;48.27;98155.72;4818768;29;20035;-77
2024/03/30 09:41:54;;;;;;;0.00;0.00;;;;;;;29.03;47.86;98174.47;4796347;29;20454;-78
2024/03/30 09:44:20;;;;;;;0.00;0.00;;;;;;;30.88;43.81;98165.28;4803224;29;20026;-77
2024/03/30 09:46:48;;;;;;;0.00;0.00;;;;;;;32.26;44.14;98181.34;4804331;29;21518;-77
2024/03/30 09:49:15;;;;;;;0.00;0.00;;;;;;;32.44;43.31;98169.25;4819985;29;20032;-77
2024/03/30 09:51:43;;;;;;;0.00;0.00;;;;;;;33.01;42.00;98176.50;4785033;29;20038;-78
2024/03/30 09:54:11;;;;;;;0.00;0.00;;;;;;;33.33;36.61;98175.03;4816324;29;20474;-79
2024/03/30 09:56:42;;;;;;;0.00;0.00;;;;;;;33.42;40.56;98184.78;4814841;29;20023;-78
2024/03/30 09:59:10;;;;;;;0.00;0.00;;;;;;;33.36;41.72;98184.63;4803916;29;20031;-77
2024/03/30 10:01:36;;;;;;;0.00;0.00;;;;;;;33.72;43.18;98180.09;4818611;29;20042;-78
2024/03/30 10:04:03;;;;;;;0.00;0.00;;;;;;;34.79;42.77;98178.84;4803048;29;20027;-77
2024/03/30 10:06:37;;;;;;;0.00;0.00;;;;;;;35.92;38.19;98180.81;4785489;29;20039;-79
2024/03/30 10:09:08;;;;;;;0.00;0.00;;;;;;;36.21;38.44;98190.47;4817772;29;20030;-79
2024/03/30 10:11:35;;;;;;;0.00;0.00;;;;;;;35.32;39.94;98196.34;4816581;29;20030;-77
2024/03/30 10:14:17;;;;;;;0.00;0.00;;;;;;;35.02;37.45;98190.59;4813097;29;20038;-78
2024/03/30 10:16:44;;;;;;;0.00;0.00;;;;;;;34.69;38.58;98197.19;4797823;29;20037;-78
2024/03/30 10:19:11;;;;;;;0.00;0.00;;;;;;;34.67;39.04;98199.72;4807301;29;20062;-76
2024/03/30 10:21:36;;;;;;;0.00;0.00;;;;;;;34.72;41.97;98193.38;4793236;29;20347;-77
2024/03/30 10:24:03;;;;;;;0.00;0.00;;;;;;;32.13;39.30;98208.97;4817396;29;20032;-79
2024/03/30 10:26:28;;;;;;;0.00;0.00;;;;;;;27.08;44.96;98200.84;4817036;29;20045;-78
2024/03/30 10:28:54;;;;;;;0.00;0.00;;;;;;;23.73;53.57;98183.69;4799832;29;20030;-78
2024/03/30 10:31:19;;;;;;;0.00;0.00;;;;;;;22.59;59.09;98181.00;4812636;29;20094;-77
2024/03/30 10:33:46;;;;;;;0.00;0.00;;;;;;;23.99;61.59;98207.44;4803725;29;20125;-76
2024/03/30 10:36:12;;;;;;;0.00;0.00;;;;;;;26.20;61.53;98200.84;4815186;29;20086;-77
2024/03/30 10:38:38;;;;;;;0.00;0.00;;;;;;;30.58;57.14;98214.75;4818388;29;20439;-76
2024/03/30 10:41:05;;;;;;;0.00;0.00;;;;;;;33.48;41.98;98211.97;4807409;29;20039;-77
2024/03/30 10:43:31;;;;;;;0.00;0.00;;;;;;;34.04;40.92;98220.25;4815166;29;20030;-78
2024/03/30 10:45:56;;;;;;;0.00;0.00;;;;;;;30.85;40.84;98210.56;4817019;29;20445;-77
2024/03/30 10:48:25;;;;;;;0.00;0.00;;;;;;;28.75;47.43;98212.63;4815437;29;20049;-77
2024/03/30 10:50:51;;;;;;;0.00;0.00;;;;;;;25.69;51.29;98222.41;4792143;29;20066;-77
2024/03/30 10:53:16;;;;;;;0.00;0.00;;;;;;;24.38;60.98;98200.72;4782217;29;20038;-78
2024/03/30 10:55:43;;;;;;;0.00;0.00;;;;;;;27.42;55.82;98197.72;4799594;29;20030;-77
2024/03/30 10:58:09;;;;;;;0.00;0.00;;;;;;;29.06;50.29;98202.50;4820555;29;20034;-77
2024/03/30 11:00:36;;;;;;;0.00;0.00;;;;;;;31.05;47.60;98219.53;4797120;29;20034;-77
2024/03/30 11:03:03;;;;;;;0.00;0.00;;;;;;;32.40;43.90;98211.03;4820686;29;20538;-78
2024/03/30 11:05:30;;;;;;;0.00;0.00;;;;;;;34.26;44.35;98206.63;4799061;29;20042;-76
2024/03/30 11:07:57;;;;;;;0.00;0.00;;;;;;;35.63;38.72;98227.88;4820736;29;20034;-76
2024/03/30 11:10:23;;;;;;;0.00;0.00;;;;;;;35.73;40.18;98213.53;4793283;29;20037;-77
2024/03/30 11:12:48;;;;;;;0.00;0.00;;;;;;;36.33;42.37;98209.31;4819720;29;20026;-77
2024/03/30 11:15:14;;;;;;;0.00;0.00;;;;;;;37.58;41.97;98213.53;4816757;29;20042;-77
2024/03/30 11:17:47;;;;;;;0.00;0.00;;;;;;;38.59;36.57;98230.53;4802034;29;20054;-78
2024/03/30 11:20:22;;;;;;;0.00;0.00;;;;;;;39.06;38.02;98213.09;4810903;29;20084;-77
2024/03/30 11:23:07;;;;;;;0.00;0.00;;;;;;;39.55;36.83;98226.41;4815023;29;20061;-79
2024/03/30 11:25:36;;;;;;;0.00;0.00;;;;;;;38.83;37.33;98217.97;4817921;29;20132;-79
2024/03/30 11:28:30;;;;;;;0.00;0.00;;;;;;;35.88;38.73;98217.19;4804862;29;20030;-78
2024/03/30 11:31:38;;;;;;;0.00;0.00;;;;;;;29.10;49.25;98207.25;4821353;29;20046;-79
2024/03/30 11:34:06;;;;;;;0.00;0.00;;;;;;;28.46;53.56;98205.72;4781803;29;20042;-79
2024/03/30 11:36:35;;;;;;;0.00;0.00;;;;;;;29.73;44.74;98198.13;4807349;29;20111;-78
2024/03/30 11:39:20;;;;;;;0.00;0.00;;;;;;;30.77;44.95;98198.75;4820601;29;20019;-79
2024/03/30 11:41:51;;;;;;;0.00;0.00;;;;;;;31.07;38.32;98176.72;4824874;29;20022;-78
2024/03/30 11:44:20;;;;;;;0.00;0.00;;;;;;;28.24;43.74;98205.50;4820589;29;20031;-77
2024/03/30 11:46:47;;;;;;;0.00;0.00;;;;;;;30.36;42.74;98229.53;4819312;29;20101;-79
2024/03/30 11:49:14;;;;;;;0.00;0.00;;;;;;;33.51;45.41;98211.03;4819523;29;20034;-78
2024/03/30 11:51:40;;;;;;;0.00;0.00;;;;;;;34.77;40.66;98198.41;4816222;29;20060;-77
2024/03/30 11:54:19;;;;;;;0.00;0.00;;;;;;;35.48;37.58;98227.88;4817296;29;20105;-78
2024/03/30 11:57:13;;;;;;;0.00;0.00;;;;;;;35.77;39.18;98225.50;4815160;29;20058;-78
2024/03/30 11:59:41;;;;;;;0.00;0.00;;;;;;;35.45;36.79;98245.13;4803496;29;20039;-78
2024/03/30 12:02:11;;;;;;;0.00;0.00;;;;;;;35.21;40.12;98226.09;4815827;29;20083;-77
2024/03/30 12:04:41;;;;;;;0.00;0.00;;;;;;;36.13;36.77;98229.94;4801606;29;20482;-77
2024/03/30 12:07:10;;;;;;;0.00;0.00;;;;;;;37.39;35.42;98227.38;4795151;29;20042;-77
2024/03/30 12:09:36;;;;;;;0.00;0.00;;;;;;;37.66;36.84;98223.19;4813903;29;20094;-76
2024/03/30 12:12:19;;;;;;;0.00;0.00;;;;;;;35.65;41.19;98213.16;4815218;29;20438;-76